Time;durP1;ratioP1;P1;durP2;ratioP2;P2;SDS_P1;SDS_P2;PMS_P1;PMS_P2;Temp;Humidity;BMP_temperature;BMP_pressure;BME280_temperature;BME280_humidity;BME280_pressure;Samples;Min_cycle;Max_cycle;Signal;HPM_P1;HPM_P2
2020/12/16 00:00:51;;;;;;;4.28;3.30;;;;;;;;;;5095042;28;20213;-61
2020/12/16 00:03:17;;;;;;;3.75;3.35;;;;;;;;;;5095763;28;20867;-61
2020/12/16 00:05:43;;;;;;;4.70;3.28;;;;;;;;;;5095179;28;20186;-61
2020/12/16 00:08:09;;;;;;;4.45;3.22;;;;;;;;;;5095069;28;20205;-61
2020/12/16 00:10:35;;;;;;;4.40;3.13;;;;;;;;;;5085520;28;20198;-61
2020/12/16 00:13:03;;;;;;;3.78;2.65;;;;;;;;;;5078255;28;20258;-61
2020/12/16 00:15:29;;;;;;;4.20;3.13;;;;;;;;;;5076529;28;20173;-60
2020/12/16 00:17:55;;;;;;;3.28;2.83;;;;;;;;;;5095352;28;20190;-61
2020/12/16 00:20:21;;;;;;;4.65;3.10;;;;;;;;;;5094775;28;20174;-61
2020/12/16 00:22:47;;;;;;;3.88;2.83;;;;;;;;;;5088124;28;20240;-61
2020/12/16 00:25:13;;;;;;;2.85;2.55;;;;;;;;;;5075140;28;20454;-61
2020/12/16 00:27:39;;;;;;;3.92;3.10;;;;;;;;;;5075493;28;20185;-61
2020/12/16 00:30:06;;;;;;;4.35;2.85;;;;;;;;;;5081574;28;20174;-61
2020/12/16 00:32:32;;;;;;;4.03;3.20;;;;;;;;;;5094116;28;20189;-61
2020/12/16 00:34:58;;;;;;;3.42;2.95;;;;;;;;;;5094937;28;20173;-61
2020/12/16 00:37:24;;;;;;;4.50;3.40;;;;;;;;;;5095409;28;20223;-61
2020/12/16 00:39:50;;;;;;;3.88;3.00;;;;;;;;;;5087849;28;20186;-61
2020/12/16 00:42:16;;;;;;;3.88;3.00;;;;;;;;;;5083580;28;20189;-61
2020/12/16 00:44:42;;;;;;;3.10;2.78;;;;;;;;;;5094533;28;20181;-61
2020/12/16 00:47:08;;;;;;;2.75;2.55;;;;;;;;;;5095480;28;20197;-61
2020/12/16 00:49:34;;;;;;;4.07;2.90;;;;;;;;;;5093829;28;20564;-61
2020/12/16 00:52:00;;;;;;;3.13;2.53;;;;;;;;;;5088256;28;20320;-61
2020/12/16 00:54:26;;;;;;;3.15;2.80;;;;;;;;;;5094603;28;20635;-61
2020/12/16 00:56:52;;;;;;;3.47;2.92;;;;;;;;;;5092135;28;20192;-61
2020/12/16 00:59:18;;;;;;;3.55;2.78;;;;;;;;;;5078742;28;20474;-61
2020/12/16 01:01:45;;;;;;;3.53;2.80;;;;;;;;;;5095136;28;20526;-61
2020/12/16 01:04:11;;;;;;;3.83;2.97;;;;;;;;;;5091638;28;20585;-61
2020/12/16 01:06:37;;;;;;;3.20;2.90;;;;;;;;;;5080850;28;20213;-61
2020/12/16 01:09:05;;;;;;;4.38;3.17;;;;;;;;;;5094306;28;20175;-61
2020/12/16 01:11:33;;;;;;;3.53;2.63;;;;;;;;;;5087765;28;20295;-61
2020/12/16 01:13:59;;;;;;;3.08;2.70;;;;;;;;;;5090492;28;20205;-61
2020/12/16 01:16:25;;;;;;;3.60;3.00;;;;;;;;;;5094588;28;20213;-61
2020/12/16 01:18:51;;;;;;;2.80;2.60;;;;;;;;;;5082052;28;20612;-61
2020/12/16 01:21:17;;;;;;;3.28;2.78;;;;;;;;;;5076420;28;20189;-61
2020/12/16 01:23:43;;;;;;;3.67;2.60;;;;;;;;;;5098109;28;20467;-61
2020/12/16 01:26:09;;;;;;;3.42;2.88;;;;;;;;;;5094124;28;20234;-61
2020/12/16 01:28:35;;;;;;;3.03;2.72;;;;;;;;;;5083702;28;20276;-61
2020/12/16 01:31:01;;;;;;;3.45;2.60;;;;;;;;;;5078597;28;20194;-61
2020/12/16 01:33:27;;;;;;;3.33;2.97;;;;;;;;;;5096244;28;20632;-61
2020/12/16 01:35:53;;;;;;;3.13;2.70;;;;;;;;;;5097766;28;20235;-61
2020/12/16 01:38:19;;;;;;;3.08;2.78;;;;;;;;;;5087519;28;20558;-61
2020/12/16 01:40:45;;;;;;;3.97;2.50;;;;;;;;;;5093382;28;20190;-61
2020/12/16 01:43:11;;;;;;;3.95;2.97;;;;;;;;;;5101785;28;20177;-61
2020/12/16 01:45:37;;;;;;;2.90;2.50;;;;;;;;;;5077699;28;20211;-61
2020/12/16 01:48:03;;;;;;;3.45;2.70;;;;;;;;;;5086679;28;20204;-61
2020/12/16 01:50:29;;;;;;;2.80;2.60;;;;;;;;;;5098492;28;20204;-61
2020/12/16 01:52:57;;;;;;;4.38;2.47;;;;;;;;;;5093154;28;20182;-61
2020/12/16 01:55:26;;;;;;;2.97;2.63;;;;;;;;;;5080832;28;20228;-61
2020/12/16 01:57:54;;;;;;;2.70;2.50;;;;;;;;;;5090613;28;20190;-61
2020/12/16 02:00:20;;;;;;;3.22;2.88;;;;;;;;;;5097154;28;20182;-61
2020/12/16 02:02:51;;;;;;;3.30;2.75;;;;;;;;;;5091684;28;20231;-61
2020/12/16 02:05:19;;;;;;;2.95;2.42;;;;;;;;;;5097271;28;20170;-61
2020/12/16 02:07:46;;;;;;;2.72;2.53;;;;;;;;;;5098727;28;20244;-61
2020/12/16 02:10:13;;;;;;;2.95;2.60;;;;;;;;;;5110036;28;20169;-61
2020/12/16 02:12:39;;;;;;;3.22;2.58;;;;;;;;;;5102401;28;20177;-61
2020/12/16 02:15:09;;;;;;;3.33;2.55;;;;;;;;;;5116005;28;20597;-61
2020/12/16 02:17:35;;;;;;;3.10;2.47;;;;;;;;;;5097482;28;20188;-61
2020/12/16 02:20:04;;;;;;;2.55;2.35;;;;;;;;;;5097665;28;20284;-61
2020/12/16 02:22:30;;;;;;;3.00;2.38;;;;;;;;;;5097699;28;20206;-61
2020/12/16 02:24:57;;;;;;;2.90;2.60;;;;;;;;;;5096912;28;20189;-61
2020/12/16 02:27:23;;;;;;;3.17;2.60;;;;;;;;;;5088685;28;20178;-61
2020/12/16 02:29:49;;;;;;;3.35;2.60;;;;;;;;;;5079968;28;20774;-61
2020/12/16 02:32:16;;;;;;;2.63;2.42;;;;;;;;;;5082582;28;20209;-61
2020/12/16 02:34:42;;;;;;;2.55;2.22;;;;;;;;;;5097276;28;20170;-61
2020/12/16 02:37:08;;;;;;;2.45;2.25;;;;;;;;;;5083144;28;20204;-61
2020/12/16 02:39:34;;;;;;;2.55;2.35;;;;;;;;;;5096456;28;20174;-61
2020/12/16 02:42:04;;;;;;;2.20;2.00;;;;;;;;;;5102230;28;20192;-61
2020/12/16 02:44:30;;;;;;;2.67;2.38;;;;;;;;;;5096852;28;20174;-61
2020/12/16 02:46:57;;;;;;;2.67;2.30;;;;;;;;;;5095883;28;20178;-61
2020/12/16 02:49:23;;;;;;;2.63;2.20;;;;;;;;;;5096413;28;20198;-61
2020/12/16 02:51:50;;;;;;;3.25;2.33;;;;;;;;;;5096583;28;20212;-61
2020/12/16 02:54:16;;;;;;;2.60;2.40;;;;;;;;;;5085856;28;20596;-61
2020/12/16 02:56:47;;;;;;;2.30;2.20;;;;;;;;;;5087775;28;20181;-61
2020/12/16 02:59:13;;;;;;;2.50;2.30;;;;;;;;;;5096655;28;20178;-61
2020/12/16 03:01:39;;;;;;;2.38;2.17;;;;;;;;;;5097146;28;20568;-61
2020/12/16 03:04:05;;;;;;;2.25;2.05;;;;;;;;;;5096364;28;20261;-61
2020/12/16 03:06:31;;;;;;;2.60;2.40;;;;;;;;;;5096440;28;20185;-61
2020/12/16 03:08:57;;;;;;;3.17;2.40;;;;;;;;;;5092322;28;20182;-61
2020/12/16 03:11:22;;;;;;;2.60;2.40;;;;;;;;;;5096723;28;20213;-61
2020/12/16 03:13:48;;;;;;;2.30;2.10;;;;;;;;;;5096554;28;20181;-60
2020/12/16 03:16:18;;;;;;;2.45;2.20;;;;;;;;;;5095594;28;20188;-61
2020/12/16 03:18:44;;;;;;;2.28;2.08;;;;;;;;;;5095880;28;20189;-61
2020/12/16 03:21:10;;;;;;;2.33;2.13;;;;;;;;;;5095791;28;20625;-61
2020/12/16 03:23:36;;;;;;;2.70;2.35;;;;;;;;;;5090346;28;20209;-61
2020/12/16 03:26:05;;;;;;;2.08;1.88;;;;;;;;;;5079138;28;20614;-61
2020/12/16 03:28:32;;;;;;;2.38;2.10;;;;;;;;;;5096211;28;20189;-61
2020/12/16 03:30:58;;;;;;;2.33;2.10;;;;;;;;;;5096483;28;20247;-61
2020/12/16 03:33:24;;;;;;;1.90;1.80;;;;;;;;;;5096561;28;20173;-61
2020/12/16 03:35:50;;;;;;;2.50;2.30;;;;;;;;;;5094735;28;20578;-61
2020/12/16 03:38:16;;;;;;;2.13;1.92;;;;;;;;;;5085130;28;20179;-61
2020/12/16 03:40:42;;;;;;;2.30;2.10;;;;;;;;;;5077167;28;20553;-60
2020/12/16 03:43:08;;;;;;;2.15;1.95;;;;;;;;;;5117019;28;20180;-60
2020/12/16 03:45:34;;;;;;;2.40;2.20;;;;;;;;;;5114816;28;20545;-60
2020/12/16 03:48:00;;;;;;;2.50;2.30;;;;;;;;;;5094410;28;20204;-61
2020/12/16 03:50:26;;;;;;;2.22;2.03;;;;;;;;;;5096046;28;20557;-60
2020/12/16 03:52:52;;;;;;;2.42;2.17;;;;;;;;;;5095093;28;20178;-60
2020/12/16 03:55:18;;;;;;;2.50;2.30;;;;;;;;;;5095923;28;20498;-61
2020/12/16 03:57:44;;;;;;;2.28;2.08;;;;;;;;;;5094972;28;20235;-60
2020/12/16 04:00:10;;;;;;;2.30;2.10;;;;;;;;;;5096250;28;20184;-61
2020/12/16 04:02:39;;;;;;;2.20;2.00;;;;;;;;;;5094507;28;20197;-60
2020/12/16 04:05:06;;;;;;;2.42;2.00;;;;;;;;;;5095272;28;20185;-60
2020/12/16 04:07:32;;;;;;;3.25;2.08;;;;;;;;;;5092310;28;20248;-60
2020/12/16 04:09:58;;;;;;;2.28;2.08;;;;;;;;;;5095580;28;20185;-61
2020/12/16 04:12:24;;;;;;;2.33;2.13;;;;;;;;;;5095365;28;20246;-61
2020/12/16 04:14:50;;;;;;;2.15;1.95;;;;;;;;;;5093422;28;20516;-61
2020/12/16 04:17:16;;;;;;;2.10;1.90;;;;;;;;;;5091403;28;20186;-61
2020/12/16 04:19:43;;;;;;;2.20;2.00;;;;;;;;;;5078669;28;20181;-61
2020/12/16 04:22:09;;;;;;;2.28;2.08;;;;;;;;;;5095865;28;20189;-61
2020/12/16 04:24:35;;;;;;;2.10;1.90;;;;;;;;;;5094158;28;20223;-61
2020/12/16 04:27:01;;;;;;;2.38;2.10;;;;;;;;;;5095460;28;20267;-61
2020/12/16 04:29:27;;;;;;;3.05;1.90;;;;;;;;;;5094818;28;20508;-61
2020/12/16 04:31:53;;;;;;;2.03;1.90;;;;;;;;;;5094842;28;20201;-61
2020/12/16 04:34:20;;;;;;;2.30;2.10;;;;;;;;;;5086453;28;20252;-60
2020/12/16 04:36:47;;;;;;;1.80;1.70;;;;;;;;;;5095094;28;20251;-61
2020/12/16 04:39:13;;;;;;;1.92;1.83;;;;;;;;;;5093507;28;20174;-61
2020/12/16 04:41:39;;;;;;;2.22;2.05;;;;;;;;;;5104214;28;20173;-61
2020/12/16 04:44:06;;;;;;;2.00;1.90;;;;;;;;;;5086030;28;20204;-61
2020/12/16 04:46:37;;;;;;;1.80;1.70;;;;;;;;;;5083663;28;20190;-62
2020/12/16 04:49:03;;;;;;;1.95;1.83;;;;;;;;;;5094831;28;20273;-61
2020/12/16 04:51:32;;;;;;;2.15;2.05;;;;;;;;;;5095534;28;20256;-62
2020/12/16 04:53:58;;;;;;;1.90;1.80;;;;;;;;;;5093929;28;20177;-63
2020/12/16 04:56:25;;;;;;;2.47;2.28;;;;;;;;;;5096591;28;20299;-61
2020/12/16 04:58:51;;;;;;;2.05;1.85;;;;;;;;;;5099225;28;20575;-61
2020/12/16 05:01:17;;;;;;;2.25;1.70;;;;;;;;;;5099537;28;20208;-61
2020/12/16 05:03:43;;;;;;;2.28;1.90;;;;;;;;;;5088096;28;20455;-62
2020/12/16 05:06:09;;;;;;;2.83;2.03;;;;;;;;;;5083761;28;20185;-61
2020/12/16 05:08:35;;;;;;;2.33;2.13;;;;;;;;;;5099524;28;20182;-61
2020/12/16 05:11:02;;;;;;;2.28;2.08;;;;;;;;;;5088923;28;20256;-61
2020/12/16 05:13:28;;;;;;;1.92;1.83;;;;;;;;;;5083074;28;20183;-61
2020/12/16 05:15:54;;;;;;;2.35;1.90;;;;;;;;;;5079962;28;20248;-61
2020/12/16 05:18:21;;;;;;;1.70;1.60;;;;;;;;;;5099472;28;20239;-61
2020/12/16 05:20:54;;;;;;;2.20;1.75;;;;;;;;;;5099117;28;20192;-61
2020/12/16 05:23:25;;;;;;;2.25;2.05;;;;;;;;;;5088772;28;20236;-61
2020/12/16 05:26:01;;;;;;;11.18;4.28;;;;;;;;;;5080222;28;20178;-61
2020/12/16 05:28:31;;;;;;;24.98;5.70;;;;;;;;;;5098980;28;20177;-61
2020/12/16 05:30:58;;;;;;;19.58;5.20;;;;;;;;;;5098132;28;20205;-61
2020/12/16 05:33:24;;;;;;;13.38;4.53;;;;;;;;;;5097329;28;20268;-61
2020/12/16 05:35:54;;;;;;;11.35;4.20;;;;;;;;;;5097949;28;20491;-61
2020/12/16 05:38:20;;;;;;;11.63;3.55;;;;;;;;;;5090559;28;20194;-61
2020/12/16 05:40:46;;;;;;;8.63;3.95;;;;;;;;;;5086399;28;20186;-61
2020/12/16 05:43:26;;;;;;;9.25;3.83;;;;;;;;;;5110047;28;20264;-62
2020/12/16 05:45:52;;;;;;;10.98;4.03;;;;;;;;;;5077489;28;20182;-61
2020/12/16 05:48:18;;;;;;;11.85;4.15;;;;;;;;;;5078480;28;20186;-62
2020/12/16 05:50:54;;;;;;;8.70;4.07;;;;;;;;;;5078018;28;20205;-61
2020/12/16 05:53:25;;;;;;;11.88;3.85;;;;;;;;;;5091777;28;20483;-61
2020/12/16 05:55:56;;;;;;;8.00;3.30;;;;;;;;;;5097809;28;20178;-62
2020/12/16 05:58:24;;;;;;;8.60;3.88;;;;;;;;;;5090416;28;20179;-61
2020/12/16 06:00:52;;;;;;;11.35;3.70;;;;;;;;;;5077815;28;20178;-61
2020/12/16 06:03:19;;;;;;;8.30;3.58;;;;;;;;;;5085874;28;20275;-62
2020/12/16 06:05:49;;;;;;;10.23;3.80;;;;;;;;;;5090541;28;20272;-62
2020/12/16 06:08:16;;;;;;;7.88;3.35;;;;;;;;;;5096957;28;20414;-62
2020/12/16 06:10:43;;;;;;;7.85;3.30;;;;;;;;;;5097974;28;20189;-61
2020/12/16 06:13:12;;;;;;;6.93;3.30;;;;;;;;;;5094360;28;20186;-61
2020/12/16 06:15:46;;;;;;;8.18;3.15;;;;;;;;;;5097070;28;20427;-61
2020/12/16 06:18:14;;;;;;;10.35;3.88;;;;;;;;;;5097120;28;20260;-62
2020/12/16 06:20:41;;;;;;;11.13;3.40;;;;;;;;;;5097960;28;20174;-62
2020/12/16 06:23:08;;;;;;;7.18;3.78;;;;;;;;;;5096925;28;20201;-62
2020/12/16 06:25:37;;;;;;;8.00;3.38;;;;;;;;;;5096894;28;20261;-61
2020/12/16 06:28:03;;;;;;;15.27;3.85;;;;;;;;;;5077291;28;20182;-61
2020/12/16 06:30:29;;;;;;;6.55;3.25;;;;;;;;;;5076130;28;20182;-61
2020/12/16 06:33:18;;;;;;;6.65;3.53;;;;;;;;;;5086370;28;20178;-62
2020/12/16 06:35:45;;;;;;;7.63;3.67;;;;;;;;;;5040577;28;20461;-61
2020/12/16 06:38:18;;;;;;;6.82;3.38;;;;;;;;;;5097886;28;20201;-62
2020/12/16 06:40:45;;;;;;;8.40;3.42;;;;;;;;;;5097864;28;20272;-62
2020/12/16 06:43:30;;;;;;;6.75;3.33;;;;;;;;;;5100822;28;20504;-61
2020/12/16 06:45:56;;;;;;;6.72;2.85;;;;;;;;;;5094979;28;20182;-61
2020/12/16 06:48:34;;;;;;;4.82;2.65;;;;;;;;;;5097482;28;20182;-61
2020/12/16 06:51:17;;;;;;;6.45;3.30;;;;;;;;;;5097341;28;20194;-61
2020/12/16 06:53:46;;;;;;;8.30;3.03;;;;;;;;;;5084014;28;20201;-61
2020/12/16 06:56:12;;;;;;;5.65;2.83;;;;;;;;;;5076994;28;20193;-62
2020/12/16 06:58:39;;;;;;;6.82;3.35;;;;;;;;;;5077229;28;20175;-62
2020/12/16 07:01:11;;;;;;;4.45;2.88;;;;;;;;;;5091745;28;20224;-62
2020/12/16 07:03:38;;;;;;;6.50;2.92;;;;;;;;;;5077047;28;20190;-61
2020/12/16 07:06:04;;;;;;;5.22;3.03;;;;;;;;;;5081242;28;20220;-62
2020/12/16 07:08:30;;;;;;;5.78;2.92;;;;;;;;;;5091933;28;20182;-61
2020/12/16 07:10:56;;;;;;;5.13;3.13;;;;;;;;;;5076649;28;20202;-61
2020/12/16 07:13:22;;;;;;;6.22;2.97;;;;;;;;;;5076940;28;20178;-61
2020/12/16 07:15:59;;;;;;;5.40;3.00;;;;;;;;;;5075466;28;20167;-61
2020/12/16 07:18:27;;;;;;;4.72;2.97;;;;;;;;;;5084837;28;20450;-61
2020/12/16 07:20:58;;;;;;;5.70;2.67;;;;;;;;;;5096362;28;20182;-61
2020/12/16 07:23:28;;;;;;;6.03;2.90;;;;;;;;;;5096080;28;20548;-61
2020/12/16 07:26:02;;;;;;;5.05;2.85;;;;;;;;;;5095478;28;20185;-61
2020/12/16 07:28:28;;;;;;;3.05;2.20;;;;;;;;;;5076580;28;20174;-62
2020/12/16 07:30:54;;;;;;;3.47;2.50;;;;;;;;;;5087112;28;20599;-61
2020/12/16 07:33:20;;;;;;;6.10;2.78;;;;;;;;;;5096422;28;20277;-61
2020/12/16 07:35:47;;;;;;;4.00;2.60;;;;;;;;;;5095556;28;20477;-62
2020/12/16 07:38:14;;;;;;;5.80;2.80;;;;;;;;;;5095293;28;20198;-61
2020/12/16 07:40:40;;;;;;;4.50;2.65;;;;;;;;;;5092124;28;20206;-61
2020/12/16 07:43:08;;;;;;;4.63;2.58;;;;;;;;;;5105736;28;20182;-61
2020/12/16 07:45:34;;;;;;;5.00;3.10;;;;;;;;;;5095156;28;20178;-61
2020/12/16 07:48:02;;;;;;;6.28;3.03;;;;;;;;;;5095883;28;20255;-61
2020/12/16 07:50:28;;;;;;;4.25;2.58;;;;;;;;;;5095731;28;20501;-61
2020/12/16 07:52:54;;;;;;;5.20;3.08;;;;;;;;;;5095064;28;20256;-61
2020/12/16 07:55:26;;;;;;;4.53;2.65;;;;;;;;;;5085327;28;20193;-61
2020/12/16 07:57:52;;;;;;;4.05;2.55;;;;;;;;;;5095086;28;20186;-61
2020/12/16 08:00:22;;;;;;;4.30;2.65;;;;;;;;;;5095889;28;20188;-61
2020/12/16 08:02:51;;;;;;;4.93;2.40;;;;;;;;;;5092495;28;20198;-61
2020/12/16 08:05:17;;;;;;;3.60;2.85;;;;;;;;;;5081355;28;20260;-61
2020/12/16 08:07:44;;;;;;;4.90;2.83;;;;;;;;;;5088751;28;20572;-61
2020/12/16 08:10:10;;;;;;;5.18;2.30;;;;;;;;;;5096282;28;20224;-61
2020/12/16 08:12:40;;;;;;;3.90;2.60;;;;;;;;;;5094877;28;20506;-61
2020/12/16 08:15:19;;;;;;;2.75;2.55;;;;;;;;;;5094657;28;20170;-61
2020/12/16 08:17:49;;;;;;;4.43;2.83;;;;;;;;;;5095606;28;20170;-62
2020/12/16 08:20:15;;;;;;;2.65;2.22;;;;;;;;;;5094271;28;20177;-61
2020/12/16 08:22:42;;;;;;;3.47;2.50;;;;;;;;;;5082511;28;20265;-61
2020/12/16 08:25:11;;;;;;;4.68;3.13;;;;;;;;;;5078865;28;20194;-62
2020/12/16 08:27:38;;;;;;;4.25;2.90;;;;;;;;;;5075546;28;20185;-61
2020/12/16 08:30:05;;;;;;;5.57;2.95;;;;;;;;;;5075098;28;20546;-61
2020/12/16 08:32:33;;;;;;;4.80;3.40;;;;;;;;;;5091524;28;20206;-61
2020/12/16 08:34:59;;;;;;;5.95;2.85;;;;;;;;;;5074948;28;20174;-61
2020/12/16 08:37:25;;;;;;;3.55;3.05;;;;;;;;;;5092608;28;20178;-61
2020/12/16 08:39:51;;;;;;;4.88;3.13;;;;;;;;;;5074462;28;20202;-61
2020/12/16 08:42:24;;;;;;;4.32;3.00;;;;;;;;;;5100336;28;20217;-61
2020/12/16 08:44:51;;;;;;;4.82;3.47;;;;;;;;;;5074567;28;20185;-61
2020/12/16 08:47:24;;;;;;;3.72;3.00;;;;;;;;;;5075401;28;20312;-61
2020/12/16 08:49:51;;;;;;;4.78;3.67;;;;;;;;;;5083936;28;20548;-61
2020/12/16 08:52:17;;;;;;;4.40;3.28;;;;;;;;;;5089834;28;20285;-61
2020/12/16 08:54:44;;;;;;;3.45;3.08;;;;;;;;;;5076854;28;20182;-61
2020/12/16 08:57:11;;;;;;;3.90;3.00;;;;;;;;;;5094915;28;20254;-61
2020/12/16 08:59:37;;;;;;;3.33;2.85;;;;;;;;;;5094990;28;20555;-63
2020/12/16 09:02:04;;;;;;;3.70;2.90;;;;;;;;;;5083279;28;20174;-63
2020/12/16 09:04:32;;;;;;;3.75;3.25;;;;;;;;;;5094668;28;20174;-63
2020/12/16 09:07:07;;;;;;;4.13;3.20;;;;;;;;;;5082790;28;20208;-63
2020/12/16 09:09:34;;;;;;;3.72;2.72;;;;;;;;;;5083022;28;20269;-62
2020/12/16 09:12:00;;;;;;;3.97;3.00;;;;;;;;;;5074886;28;20209;-63
2020/12/16 09:14:26;;;;;;;3.95;3.03;;;;;;;;;;5074371;28;20241;-63
2020/12/16 09:16:53;;;;;;;2.80;2.50;;;;;;;;;;5074444;28;20494;-63
2020/12/16 09:19:26;;;;;;;4.75;2.92;;;;;;;;;;5084539;28;20197;-63
2020/12/16 09:21:53;;;;;;;3.53;2.92;;;;;;;;;;5094835;28;20257;-63
2020/12/16 09:24:20;;;;;;;5.43;3.13;;;;;;;;;;5094384;28;20580;-63
2020/12/16 09:26:46;;;;;;;3.45;3.10;;;;;;;;;;5087446;28;20471;-63
2020/12/16 09:29:16;;;;;;;4.13;3.10;;;;;;;;;;5094517;28;20177;-63
2020/12/16 09:31:42;;;;;;;3.53;2.97;;;;;;;;;;5080978;28;20253;-63
2020/12/16 09:34:08;;;;;;;7.15;3.17;;;;;;;;;;5074324;28;20205;-63
2020/12/16 09:36:34;;;;;;;5.22;3.20;;;;;;;;;;5075006;28;20174;-63
2020/12/16 09:39:04;;;;;;;4.63;3.45;;;;;;;;;;5074674;28;20461;-63
2020/12/16 09:41:41;;;;;;;4.45;3.30;;;;;;;;;;5077950;28;20197;-63
2020/12/16 09:44:07;;;;;;;4.07;3.20;;;;;;;;;;5093646;28;20189;-63
2020/12/16 09:46:33;;;;;;;4.07;3.13;;;;;;;;;;5097936;28;20545;-62
2020/12/16 09:49:00;;;;;;;3.33;3.03;;;;;;;;;;5098573;28;20245;-63
2020/12/16 09:51:26;;;;;;;4.38;3.08;;;;;;;;;;5098621;28;20194;-63
2020/12/16 09:53:54;;;;;;;2.92;2.63;;;;;;;;;;5098207;28;20244;-63
2020/12/16 09:56:24;;;;;;;4.63;3.40;;;;;;;;;;5079839;28;20253;-63
2020/12/16 09:58:50;;;;;;;4.53;3.17;;;;;;;;;;5082438;28;20181;-63
2020/12/16 10:01:16;;;;;;;5.03;3.17;;;;;;;;;;5084616;28;20698;-63
2020/12/16 10:03:42;;;;;;;3.63;3.17;;;;;;;;;;5094917;28;20196;-62
2020/12/16 10:06:12;;;;;;;4.25;3.38;;;;;;;;;;5091609;28;20181;-63
2020/12/16 10:08:38;;;;;;;6.47;3.25;;;;;;;;;;5084750;28;20170;-62
2020/12/16 10:11:04;;;;;;;3.22;2.88;;;;;;;;;;5098023;28;20198;-63
2020/12/16 10:13:31;;;;;;;3.33;3.00;;;;;;;;;;5088526;28;20194;-63
2020/12/16 10:15:57;;;;;;;4.28;3.17;;;;;;;;;;5094101;28;20196;-63
2020/12/16 10:18:23;;;;;;;6.75;3.33;;;;;;;;;;5094205;28;20216;-63
2020/12/16 10:20:49;;;;;;;4.30;3.33;;;;;;;;;;5077744;28;20174;-62
2020/12/16 10:23:16;;;;;;;3.50;3.20;;;;;;;;;;5077494;28;20194;-63
2020/12/16 10:25:42;;;;;;;3.30;2.80;;;;;;;;;;5059242;28;20182;-63
2020/12/16 10:28:10;;;;;;;4.70;3.40;;;;;;;;;;5095124;28;20469;-63
2020/12/16 10:30:36;;;;;;;4.68;2.97;;;;;;;;;;5092596;28;20205;-62
2020/12/16 10:33:02;;;;;;;3.63;3.33;;;;;;;;;;5082300;28;20581;-63
2020/12/16 10:35:28;;;;;;;3.60;2.97;;;;;;;;;;5091069;28;20195;-63
2020/12/16 10:37:54;;;;;;;3.70;3.05;;;;;;;;;;5097223;28;20184;-63
2020/12/16 10:40:21;;;;;;;3.13;2.80;;;;;;;;;;5097935;28;20174;-63
2020/12/16 10:42:47;;;;;;;5.25;3.28;;;;;;;;;;5106049;28;20208;-62
2020/12/16 10:45:13;;;;;;;3.20;2.90;;;;;;;;;;5092849;28;20261;-63
2020/12/16 10:47:40;;;;;;;3.85;2.90;;;;;;;;;;5096921;28;20185;-63
2020/12/16 10:50:06;;;;;;;4.85;3.20;;;;;;;;;;5087034;28;20205;-63
2020/12/16 10:52:33;;;;;;;3.45;2.70;;;;;;;;;;5091794;28;20206;-63
2020/12/16 10:54:59;;;;;;;3.97;3.20;;;;;;;;;;5089377;28;20260;-63
2020/12/16 10:57:25;;;;;;;4.20;3.20;;;;;;;;;;5093637;28;20258;-63
2020/12/16 10:59:51;;;;;;;4.85;2.80;;;;;;;;;;5085136;28;20418;-62
2020/12/16 11:02:17;;;;;;;4.32;3.08;;;;;;;;;;5080860;28;20616;-63
2020/12/16 11:04:46;;;;;;;5.63;2.90;;;;;;;;;;5090619;28;20190;-63
2020/12/16 11:07:12;;;;;;;3.33;2.90;;;;;;;;;;5097005;28;20182;-63
2020/12/16 11:09:38;;;;;;;2.90;2.70;;;;;;;;;;5096725;28;20186;-63
2020/12/16 11:12:05;;;;;;;3.10;2.72;;;;;;;;;;5096834;28;20197;-63
2020/12/16 11:14:30;;;;;;;3.75;3.35;;;;;;;;;;5092827;28;20180;-62
2020/12/16 11:16:57;;;;;;;3.13;2.83;;;;;;;;;;5095376;28;20257;-63
2020/12/16 11:19:23;;;;;;;3.95;3.10;;;;;;;;;;5096350;28;20174;-63
2020/12/16 11:21:50;;;;;;;3.97;2.88;;;;;;;;;;5095827;28;20177;-63
2020/12/16 11:24:18;;;;;;;3.22;2.90;;;;;;;;;;5095450;28;20200;-63
2020/12/16 11:26:46;;;;;;;3.30;2.92;;;;;;;;;;5095769;28;20243;-63
2020/12/16 11:29:13;;;;;;;3.00;2.80;;;;;;;;;;5095304;28;20193;-63
2020/12/16 11:31:39;;;;;;;5.05;3.20;;;;;;;;;;5096740;28;20233;-63
2020/12/16 11:34:06;;;;;;;4.22;3.40;;;;;;;;;;5095985;28;20255;-63
2020/12/16 11:36:32;;;;;;;4.90;2.97;;;;;;;;;;5096285;28;20527;-63
2020/12/16 11:38:57;;;;;;;3.35;2.78;;;;;;;;;;5092277;28;20411;-63
2020/12/16 11:41:23;;;;;;;7.25;3.30;;;;;;;;;;5102132;28;20183;-63
2020/12/16 11:43:49;;;;;;;5.25;3.20;;;;;;;;;;5090865;28;20451;-63
2020/12/16 11:46:15;;;;;;;5.63;3.35;;;;;;;;;;5095397;28;20239;-63
2020/12/16 11:48:41;;;;;;;5.10;3.35;;;;;;;;;;5096092;28;20181;-63
2020/12/16 11:51:07;;;;;;;5.32;3.42;;;;;;;;;;5096139;28;20259;-62
2020/12/16 11:53:33;;;;;;;5.10;3.45;;;;;;;;;;5085823;28;20182;-63
2020/12/16 11:56:00;;;;;;;3.63;3.17;;;;;;;;;;5095799;28;20549;-63
2020/12/16 11:58:29;;;;;;;3.42;3.13;;;;;;;;;;5096081;28;20209;-63
2020/12/16 12:00:54;;;;;;;4.40;2.97;;;;;;;;;;5075733;28;20178;-63
2020/12/16 12:03:20;;;;;;;6.28;3.15;;;;;;;;;;5079905;28;20431;-63
2020/12/16 12:05:46;;;;;;;4.65;3.47;;;;;;;;;;5094583;28;20213;-62
2020/12/16 12:08:12;;;;;;;5.13;3.20;;;;;;;;;;5095470;28;20807;-63
2020/12/16 12:10:38;;;;;;;4.65;3.15;;;;;;;;;;5091528;28;20459;-63
2020/12/16 12:13:05;;;;;;;6.00;3.40;;;;;;;;;;5080048;28;20181;-63
2020/12/16 12:15:32;;;;;;;3.75;3.20;;;;;;;;;;5093152;28;20174;-63
2020/12/16 12:17:58;;;;;;;6.50;3.60;;;;;;;;;;5084428;28;20619;-63
2020/12/16 12:20:24;;;;;;;5.18;3.40;;;;;;;;;;5095425;28;20196;-63
2020/12/16 12:22:50;;;;;;;5.82;3.38;;;;;;;;;;5095092;28;20189;-63
2020/12/16 12:25:16;;;;;;;5.43;3.28;;;;;;;;;;5085330;28;20186;-63
2020/12/16 12:27:43;;;;;;;5.47;3.22;;;;;;;;;;5093121;28;20190;-63
2020/12/16 12:30:09;;;;;;;6.07;3.30;;;;;;;;;;5093486;28;20209;-63
2020/12/16 12:32:35;;;;;;;6.43;3.53;;;;;;;;;;5084484;28;20597;-63
2020/12/16 12:35:01;;;;;;;4.38;2.83;;;;;;;;;;5091267;28;20261;-64
2020/12/16 12:37:26;;;;;;;6.10;3.60;;;;;;;;;;5095557;28;20173;-63
2020/12/16 12:39:52;;;;;;;4.88;3.45;;;;;;;;;;5094358;28;20182;-63
2020/12/16 12:42:18;;;;;;;4.50;2.85;;;;;;;;;;5097944;28;20181;-63
2020/12/16 12:44:44;;;;;;;7.18;2.97;;;;;;;;;;5094062;28;20193;-63
2020/12/16 12:47:10;;;;;;;4.82;3.00;;;;;;;;;;5094915;28;20182;-63
2020/12/16 12:49:36;;;;;;;4.10;3.38;;;;;;;;;;5088125;28;20268;-63
2020/12/16 12:52:03;;;;;;;4.85;2.95;;;;;;;;;;5093450;28;20210;-63
2020/12/16 12:54:29;;;;;;;5.13;3.10;;;;;;;;;;5094610;28;20219;-63
2020/12/16 12:56:55;;;;;;;6.93;3.75;;;;;;;;;;5094494;28;20178;-63
2020/12/16 12:59:21;;;;;;;3.90;2.85;;;;;;;;;;5094723;28;20247;-63
2020/12/16 13:01:51;;;;;;;5.85;3.00;;;;;;;;;;5093866;28;20520;-63
2020/12/16 13:04:17;;;;;;;3.55;3.03;;;;;;;;;;5089276;28;20189;-63
2020/12/16 13:06:46;;;;;;;6.50;2.85;;;;;;;;;;5074899;28;20237;-63
2020/12/16 13:09:13;;;;;;;6.95;2.92;;;;;;;;;;5075315;28;20262;-63
2020/12/16 13:11:40;;;;;;;4.57;2.65;;;;;;;;;;5083301;28;20697;-63
2020/12/16 13:14:06;;;;;;;4.07;2.50;;;;;;;;;;5086680;28;20178;-63
2020/12/16 13:16:32;;;;;;;3.13;2.65;;;;;;;;;;5095358;28;20599;-63
2020/12/16 13:18:58;;;;;;;5.10;2.90;;;;;;;;;;5098211;28;20196;-63
2020/12/16 13:21:24;;;;;;;4.00;2.80;;;;;;;;;;5084826;28;20174;-63
2020/12/16 13:23:50;;;;;;;4.68;2.63;;;;;;;;;;5097427;28;20209;-63
2020/12/16 13:26:16;;;;;;;4.95;2.70;;;;;;;;;;5097987;28;20259;-63
2020/12/16 13:28:42;;;;;;;71.43;14.30;;;;;;;;;;5097206;28;20215;-63
2020/12/16 13:31:08;;;;;;;79.43;16.65;;;;;;;;;;5098523;28;20228;-63
2020/12/16 13:33:34;;;;;;;67.90;16.88;;;;;;;;;;5079064;28;20459;-63
2020/12/16 13:36:00;;;;;;;61.25;15.55;;;;;;;;;;5086997;28;20178;-63
2020/12/16 13:38:27;;;;;;;57.30;15.52;;;;;;;;;;5091151;28;20236;-63
2020/12/16 13:40:53;;;;;;;61.67;14.38;;;;;;;;;;5100489;28;20177;-63
2020/12/16 13:43:20;;;;;;;54.17;14.02;;;;;;;;;;5115925;28;20502;-63
2020/12/16 13:45:46;;;;;;;50.17;13.48;;;;;;;;;;5096790;28;20575;-63
2020/12/16 13:48:12;;;;;;;58.53;14.75;;;;;;;;;;5115313;28;20185;-63
2020/12/16 13:50:39;;;;;;;50.00;13.15;;;;;;;;;;5104300;28;20553;-63
2020/12/16 13:53:05;;;;;;;55.38;14.63;;;;;;;;;;5095346;28;20253;-63
2020/12/16 13:55:31;;;;;;;56.40;15.32;;;;;;;;;;5098218;28;20475;-63
2020/12/16 13:57:57;;;;;;;49.42;13.75;;;;;;;;;;5097953;28;20246;-63
2020/12/16 14:00:23;;;;;;;47.90;15.23;;;;;;;;;;5097823;28;20184;-63
2020/12/16 14:02:49;;;;;;;41.80;13.40;;;;;;;;;;5097034;28;20190;-63
2020/12/16 14:05:15;;;;;;;44.00;14.65;;;;;;;;;;5098044;28;20177;-63
2020/12/16 14:07:41;;;;;;;41.92;12.82;;;;;;;;;;5098332;28;20331;-64
2020/12/16 14:10:07;;;;;;;36.15;12.60;;;;;;;;;;5084264;28;20178;-63
2020/12/16 14:12:34;;;;;;;38.25;12.27;;;;;;;;;;5078004;28;20240;-63
2020/12/16 14:15:00;;;;;;;35.63;10.82;;;;;;;;;;5094644;28;20180;-63
2020/12/16 14:17:26;;;;;;;39.55;12.32;;;;;;;;;;5095703;28;20174;-63
2020/12/16 14:19:53;;;;;;;34.67;11.02;;;;;;;;;;5097821;28;20221;-63
2020/12/16 14:22:19;;;;;;;34.03;10.95;;;;;;;;;;5083552;28;20227;-63
2020/12/16 14:24:45;;;;;;;28.48;10.20;;;;;;;;;;5078372;28;20504;-63
2020/12/16 14:27:11;;;;;;;35.17;11.32;;;;;;;;;;5085558;28;20203;-63
2020/12/16 14:29:37;;;;;;;33.03;10.32;;;;;;;;;;5097056;28;20170;-63
2020/12/16 14:32:03;;;;;;;26.70;9.43;;;;;;;;;;5097654;28;20627;-63
2020/12/16 14:34:29;;;;;;;25.95;9.27;;;;;;;;;;5095676;28;20247;-63
2020/12/16 14:36:55;;;;;;;29.45;9.35;;;;;;;;;;5094615;28;20193;-63
2020/12/16 14:39:22;;;;;;;28.33;9.43;;;;;;;;;;5077705;28;20542;-63